Time;durP1;ratioP1;P1;durP2;ratioP2;P2;SDS_P1;SDS_P2;PMS_P1;PMS_P2;Temp;Humidity;BMP_temperature;BMP_pressure;BME280_temperature;BME280_humidity;BME280_pressure;Samples;Min_cycle;Max_cycle;Signal;HPM_P1;HPM_P2
2023/04/22 00:01:49;;;;;;;11.13;5.95;;;;;;;6.70;100.00;100734.38;4897954;29;20032;-72
2023/04/22 00:04:15;;;;;;;12.65;6.25;;;;;;;6.78;100.00;100742.25;4897841;29;20123;-73
2023/04/22 00:06:40;;;;;;;13.68;7.63;;;;;;;6.74;100.00;100741.81;4897919;29;20037;-73
2023/04/22 00:09:05;;;;;;;15.38;7.93;;;;;;;6.74;100.00;100739.16;4881004;29;20997;-73
2023/04/22 00:11:31;;;;;;;11.07;6.95;;;;;;;6.80;100.00;100742.91;4880972;29;20069;-72
2023/04/22 00:13:56;;;;;;;11.30;6.20;;;;;;;6.73;100.00;100724.25;4897620;29;20041;-73
2023/04/22 00:16:21;;;;;;;11.30;6.13;;;;;;;6.68;100.00;100729.25;4880921;29;20080;-72
2023/04/22 00:18:47;;;;;;;13.50;7.18;;;;;;;6.62;100.00;100729.13;4897502;29;20032;-72
2023/04/22 00:21:13;;;;;;;11.65;6.43;;;;;;;6.64;100.00;100727.94;4897549;29;20068;-73
2023/04/22 00:23:38;;;;;;;13.40;7.57;;;;;;;6.61;100.00;100730.94;4880793;29;20115;-72
2023/04/22 00:26:04;;;;;;;11.77;5.75;;;;;;;6.58;100.00;100726.81;4880608;29;20059;-72
2023/04/22 00:28:30;;;;;;;11.95;6.15;;;;;;;6.58;100.00;100731.28;4897513;29;20069;-72
2023/04/22 00:30:57;;;;;;;14.63;6.90;;;;;;;6.57;100.00;100734.91;4897076;29;20056;-72
2023/04/22 00:33:23;;;;;;;11.07;6.30;;;;;;;6.53;100.00;100738.94;4897232;29;20045;-72
2023/04/22 00:35:48;;;;;;;11.07;5.93;;;;;;;6.56;100.00;100736.75;4897187;29;20032;-72
2023/04/22 00:38:13;;;;;;;11.93;6.75;;;;;;;6.53;100.00;100715.09;4880253;29;20560;-72
2023/04/22 00:40:39;;;;;;;11.02;6.47;;;;;;;6.57;100.00;100725.16;4897289;29;20127;-72
2023/04/22 00:43:04;;;;;;;13.10;6.82;;;;;;;6.60;100.00;100729.28;4897303;29;20036;-72
2023/04/22 00:45:30;;;;;;;13.85;6.05;;;;;;;6.59;100.00;100732.94;4897042;29;20036;-72
2023/04/22 00:47:56;;;;;;;12.80;7.40;;;;;;;6.55;100.00;100721.03;4897059;29;20120;-73
2023/04/22 00:50:21;;;;;;;11.00;6.22;;;;;;;6.49;100.00;100708.47;4897131;29;20036;-72
2023/04/22 00:52:47;;;;;;;10.52;6.25;;;;;;;6.56;100.00;100720.03;4896962;29;20469;-72
2023/04/22 00:55:12;;;;;;;11.27;5.90;;;;;;;6.57;100.00;100724.31;4896940;29;20052;-72
2023/04/22 00:57:39;;;;;;;14.45;7.35;;;;;;;6.61;100.00;100730.13;4896833;29;20373;-72
2023/04/22 01:00:05;;;;;;;11.80;6.10;;;;;;;6.57;100.00;100726.97;4896900;29;20468;-73
2023/04/22 01:02:31;;;;;;;12.07;6.93;;;;;;;6.54;100.00;100729.97;4896749;29;20389;-72
2023/04/22 01:04:57;;;;;;;13.20;6.68;;;;;;;6.56;100.00;100728.81;4896652;29;20024;-73
2023/04/22 01:07:22;;;;;;;15.68;8.30;;;;;;;6.51;100.00;100722.38;4879432;29;20041;-72
2023/04/22 01:09:48;;;;;;;13.68;7.80;;;;;;;6.53;100.00;100728.34;4896666;29;20055;-72
2023/04/22 01:12:14;;;;;;;12.77;7.80;;;;;;;6.49;100.00;100724.38;4879772;29;20040;-72
2023/04/22 01:14:39;;;;;;;15.45;8.40;;;;;;;6.52;100.00;100729.31;4879720;29;20040;-72
2023/04/22 01:17:05;;;;;;;16.30;8.02;;;;;;;6.51;100.00;100717.91;4896483;29;20039;-72
2023/04/22 01:19:31;;;;;;;16.30;8.32;;;;;;;6.48;100.00;100715.59;4896511;29;20361;-72
2023/04/22 01:21:58;;;;;;;14.95;8.38;;;;;;;6.49;100.00;100719.06;4879862;29;20047;-72
2023/04/22 01:24:24;;;;;;;15.32;8.45;;;;;;;6.53;100.00;100726.50;4896439;29;20080;-72
2023/04/22 01:26:49;;;;;;;15.75;7.68;;;;;;;6.55;100.00;100716.56;4896378;29;20040;-73
2023/04/22 01:29:15;;;;;;;14.55;8.05;;;;;;;6.57;100.00;100717.19;4896303;29;20029;-72
2023/04/22 01:31:40;;;;;;;14.25;7.28;;;;;;;6.55;100.00;100711.28;4879302;29;20567;-72
2023/04/22 01:34:06;;;;;;;13.48;7.35;;;;;;;6.64;100.00;100712.03;4896328;29;20453;-73
2023/04/22 01:36:32;;;;;;;13.10;7.43;;;;;;;6.64;100.00;100714.69;4896146;29;20036;-72
2023/04/22 01:38:59;;;;;;;14.07;7.53;;;;;;;6.64;100.00;100709.38;4896048;29;20032;-72
2023/04/22 01:41:24;;;;;;;14.30;7.75;;;;;;;6.66;100.00;100706.56;4896191;29;20032;-72
2023/04/22 01:43:52;;;;;;;10.68;6.53;;;;;;;6.72;100.00;100703.22;4896171;29;20035;-73
2023/04/22 01:46:18;;;;;;;12.85;7.07;;;;;;;6.69;100.00;100696.44;4896032;29;20071;-72
2023/04/22 01:48:49;;;;;;;11.30;6.20;;;;;;;6.69;100.00;100691.13;4879517;29;20124;-72
2023/04/22 01:51:16;;;;;;;12.25;6.28;;;;;;;6.77;100.00;100699.03;4880125;29;20036;-73
2023/04/22 01:53:42;;;;;;;11.75;6.03;;;;;;;6.80;100.00;100705.81;4878086;29;20493;-72
2023/04/22 01:56:07;;;;;;;12.00;6.20;;;;;;;6.83;100.00;100694.84;4877938;29;20043;-72
2023/04/22 01:58:33;;;;;;;10.85;5.95;;;;;;;6.86;100.00;100706.94;4877766;29;20173;-72
2023/04/22 02:00:58;;;;;;;10.68;6.65;;;;;;;6.82;100.00;100690.56;4877966;29;20040;-72
2023/04/22 02:03:23;;;;;;;12.27;6.03;;;;;;;6.91;100.00;100697.44;4876598;29;20047;-72
2023/04/22 02:05:49;;;;;;;9.93;6.20;;;;;;;6.91;100.00;100694.78;4895598;29;20036;-72
2023/04/22 02:08:14;;;;;;;11.73;6.07;;;;;;;6.89;100.00;100696.81;4878877;29;20033;-72
2023/04/22 02:10:40;;;;;;;13.27;6.80;;;;;;;6.96;100.00;100696.94;4877847;29;21269;-72
2023/04/22 02:13:05;;;;;;;12.10;7.10;;;;;;;6.93;100.00;100687.50;4876422;29;20618;-72
2023/04/22 02:15:30;;;;;;;10.88;6.55;;;;;;;6.93;100.00;100690.16;4877772;29;20049;-72
2023/04/22 02:17:56;;;;;;;13.20;6.45;;;;;;;7.00;100.00;100695.59;4877507;29;20033;-72
2023/04/22 02:20:21;;;;;;;13.35;7.18;;;;;;;7.02;100.00;100693.56;4875486;29;20478;-72
2023/04/22 02:22:47;;;;;;;13.68;7.03;;;;;;;7.00;100.00;100696.41;4860769;29;20040;-72
2023/04/22 02:25:12;;;;;;;11.57;6.38;;;;;;;6.98;100.00;100682.50;4860771;29;20393;-72
2023/04/22 02:27:38;;;;;;;9.85;6.47;;;;;;;7.01;100.00;100689.25;4895390;29;20473;-72
2023/04/22 02:30:05;;;;;;;12.52;6.07;;;;;;;7.01;100.00;100692.72;4863885;29;20088;-72
2023/04/22 02:32:30;;;;;;;13.00;6.55;;;;;;;6.99;100.00;100680.66;4895184;29;20029;-72
2023/04/22 02:34:56;;;;;;;14.35;7.35;;;;;;;7.06;100.00;100691.41;4895031;29;20032;-73
2023/04/22 02:37:21;;;;;;;11.95;6.72;;;;;;;7.06;100.00;100683.44;4894862;29;20032;-72
2023/04/22 02:39:50;;;;;;;8.18;5.63;;;;;;;7.08;100.00;100678.78;4895036;29;20033;-72
2023/04/22 02:42:15;;;;;;;12.77;6.28;;;;;;;7.06;100.00;100673.66;4895164;29;20050;-72
2023/04/22 02:44:41;;;;;;;10.98;6.65;;;;;;;7.12;100.00;100682.72;4894868;29;20032;-72
2023/04/22 02:47:06;;;;;;;11.10;6.20;;;;;;;7.10;100.00;100671.44;4894792;29;20460;-72
2023/04/22 02:49:32;;;;;;;11.40;6.13;;;;;;;7.16;100.00;100679.53;4894808;29;20127;-72
2023/04/22 02:51:57;;;;;;;10.77;6.13;;;;;;;7.11;100.00;100657.22;4894740;29;20527;-72
2023/04/22 02:54:22;;;;;;;14.18;6.75;;;;;;;7.17;100.00;100667.91;4894774;29;20121;-72
2023/04/22 02:56:48;;;;;;;13.18;6.78;;;;;;;7.21;100.00;100663.09;4894966;29;20115;-72
2023/04/22 02:59:13;;;;;;;12.38;6.20;;;;;;;7.24;100.00;100662.72;4894747;29;20037;-72
2023/04/22 03:01:38;;;;;;;14.25;7.88;;;;;;;7.22;100.00;100662.91;4877749;29;20060;-72
2023/04/22 03:04:04;;;;;;;14.48;7.25;;;;;;;7.25;100.00;100669.66;4877857;29;20486;-72
2023/04/22 03:06:29;;;;;;;17.08;7.22;;;;;;;7.20;100.00;100654.31;4877759;29;20032;-72
2023/04/22 03:08:55;;;;;;;11.80;6.63;;;;;;;7.26;100.00;100666.03;4894901;29;20111;-72
2023/04/22 03:11:20;;;;;;;14.95;8.18;;;;;;;7.26;100.00;100658.06;4894518;29;20040;-72
2023/04/22 03:13:46;;;;;;;13.18;6.50;;;;;;;7.33;100.00;100658.16;4877648;29;20101;-72
2023/04/22 03:16:11;;;;;;;15.30;7.43;;;;;;;7.31;100.00;100655.72;4894309;29;20044;-72
2023/04/22 03:18:36;;;;;;;16.10;7.35;;;;;;;7.38;100.00;100663.75;4894319;29;20488;-72
2023/04/22 03:21:03;;;;;;;15.18;8.02;;;;;;;7.37;100.00;100644.38;4894358;29;20131;-72
2023/04/22 03:23:28;;;;;;;17.55;9.13;;;;;;;7.44;100.00;100660.38;4894398;29;20111;-72
2023/04/22 03:25:53;;;;;;;17.95;8.52;;;;;;;7.46;100.00;100655.72;4894360;29;20123;-72
2023/04/22 03:28:19;;;;;;;16.45;8.05;;;;;;;7.48;100.00;100653.72;4894390;29;20115;-72
2023/04/22 03:30:44;;;;;;;16.17;8.55;;;;;;;7.47;100.00;100652.06;4894062;29;20053;-72
2023/04/22 03:33:10;;;;;;;14.65;7.82;;;;;;;7.46;100.00;100642.44;4894307;29;20044;-72
2023/04/22 03:35:35;;;;;;;12.38;7.50;;;;;;;7.46;100.00;100642.44;4894222;29;20041;-72
2023/04/22 03:38:01;;;;;;;11.88;6.85;;;;;;;7.44;100.00;100644.44;4894209;29;20496;-72
2023/04/22 03:40:26;;;;;;;15.07;9.15;;;;;;;7.42;100.00;100642.00;4894271;29;20040;-72
2023/04/22 03:42:52;;;;;;;16.13;8.85;;;;;;;7.40;100.00;100638.69;4894225;29;20064;-72
2023/04/22 03:45:17;;;;;;;15.73;8.10;;;;;;;7.38;100.00;100635.38;4894102;29;20060;-72
2023/04/22 03:47:42;;;;;;;15.20;8.45;;;;;;;7.39;100.00;100638.91;4861921;29;20032;-72
2023/04/22 03:50:10;;;;;;;16.58;9.75;;;;;;;7.34;100.00;100634.13;4894069;29;20040;-72
2023/04/22 03:52:35;;;;;;;15.70;8.32;;;;;;;7.33;100.00;100629.81;4894148;29;20414;-72
2023/04/22 03:55:00;;;;;;;15.57;8.93;;;;;;;7.32;100.00;100624.69;4893925;29;20047;-72
2023/04/22 03:57:26;;;;;;;16.63;7.68;;;;;;;7.34;100.00;100631.47;4894122;29;20392;-72
2023/04/22 03:59:51;;;;;;;13.73;6.88;;;;;;;7.32;100.00;100628.16;4894226;29;20032;-72
2023/04/22 04:02:16;;;;;;;15.68;8.32;;;;;;;7.19;100.00;100598.78;4893921;29;20032;-72
2023/04/22 04:04:42;;;;;;;14.50;8.50;;;;;;;7.32;100.00;100622.03;4894028;29;20036;-72
2023/04/22 04:07:07;;;;;;;13.00;7.57;;;;;;;7.25;100.00;100617.44;4877136;29;20143;-72
2023/04/22 04:09:33;;;;;;;13.07;7.38;;;;;;;7.27;100.00;100619.09;4894079;29;20044;-72
2023/04/22 04:11:58;;;;;;;16.27;7.35;;;;;;;7.25;100.00;100616.63;4893922;29;20036;-72
2023/04/22 04:14:23;;;;;;;16.13;8.73;;;;;;;7.25;100.00;100616.63;4893853;29;20036;-72
2023/04/22 04:16:49;;;;;;;17.77;7.85;;;;;;;7.23;100.00;100610.66;4893830;29;20386;-72
2023/04/22 04:19:14;;;;;;;13.70;7.97;;;;;;;7.18;100.00;100605.94;4893886;29;20040;-72
2023/04/22 04:21:40;;;;;;;17.08;8.20;;;;;;;7.21;100.00;100610.03;4861673;29;20377;-72
2023/04/22 04:24:05;;;;;;;18.42;9.10;;;;;;;7.19;100.00;100609.41;4893954;29;20044;-72
2023/04/22 04:26:32;;;;;;;18.45;10.65;;;;;;;7.13;100.00;100604.81;4893737;29;20063;-72
2023/04/22 04:29:00;;;;;;;17.58;8.98;;;;;;;7.19;100.00;100612.88;4893989;29;20035;-72
2023/04/22 04:31:26;;;;;;;18.13;7.88;;;;;;;7.14;100.00;100609.13;4875741;29;20053;-72
2023/04/22 04:33:51;;;;;;;15.45;7.50;;;;;;;7.15;100.00;100616.06;4859263;29;20064;-72
2023/04/22 04:36:17;;;;;;;17.40;8.85;;;;;;;7.18;100.00;100619.19;4875831;29;20040;-72
2023/04/22 04:38:43;;;;;;;14.90;7.88;;;;;;;7.18;100.00;100613.88;4893230;29;20033;-72
2023/04/22 04:41:08;;;;;;;13.55;7.97;;;;;;;7.19;100.00;100617.34;4876859;29;20114;-72
2023/04/22 04:43:34;;;;;;;17.10;9.68;;;;;;;7.20;100.00;100605.72;4895505;29;20051;-72
2023/04/22 04:46:00;;;;;;;16.05;8.82;;;;;;;7.17;100.00;100601.59;4896860;29;20396;-72
2023/04/22 04:48:25;;;;;;;15.02;7.50;;;;;;;7.20;100.00;100614.53;4880206;29;20043;-72
2023/04/22 04:50:53;;;;;;;15.82;8.13;;;;;;;7.17;100.00;100608.75;4897006;29;20043;-72
2023/04/22 04:53:20;;;;;;;13.38;7.78;;;;;;;7.21;100.00;100610.03;4896914;29;20028;-72
2023/04/22 04:55:46;;;;;;;15.98;9.07;;;;;;;7.22;100.00;100615.16;4896858;29;20036;-72
2023/04/22 04:58:11;;;;;;;17.08;9.13;;;;;;;7.20;100.00;100605.72;4896852;29;20100;-72
2023/04/22 05:00:37;;;;;;;17.10;9.55;;;;;;;7.20;100.00;100605.72;4879545;29;20123;-72
2023/04/22 05:03:02;;;;;;;15.05;8.10;;;;;;;7.25;100.00;100608.66;4880077;29;20453;-76
2023/04/22 05:05:28;;;;;;;16.85;9.85;;;;;;;7.28;100.00;100615.44;4887137;29;20037;-76
2023/04/22 05:07:53;;;;;;;15.82;7.90;;;;;;;7.29;100.00;100609.16;4880238;29;20053;-76
2023/04/22 05:10:20;;;;;;;15.85;8.43;;;;;;;7.30;100.00;100618.75;4879628;29;20437;-76
2023/04/22 05:12:46;;;;;;;18.17;9.70;;;;;;;7.31;100.00;100615.91;4896641;29;20063;-77
2023/04/22 05:15:12;;;;;;;18.63;10.02;;;;;;;7.38;100.00;100622.13;4879813;29;20033;-77
2023/04/22 05:17:37;;;;;;;15.95;9.55;;;;;;;7.35;100.00;100606.56;4879355;29;20045;-77
2023/04/22 05:20:03;;;;;;;15.35;8.95;;;;;;;7.36;100.00;100613.53;4888895;29;20076;-76
2023/04/22 05:22:29;;;;;;;14.30;7.88;;;;;;;7.43;100.00;100624.25;4878368;29;20037;-77
2023/04/22 05:24:54;;;;;;;17.67;9.45;;;;;;;7.45;100.00;100623.06;4878578;29;20046;-76
2023/04/22 05:27:20;;;;;;;17.02;9.75;;;;;;;7.45;100.00;100612.44;4889554;29;20037;-76
2023/04/22 05:29:45;;;;;;;15.18;9.65;;;;;;;7.51;100.00;100605.56;4861603;29;20040;-76
2023/04/22 05:32:10;;;;;;;17.83;10.68;;;;;;;7.46;100.00;100611.41;4889595;29;20132;-77
2023/04/22 05:34:36;;;;;;;16.05;9.27;;;;;;;7.51;100.00;100613.53;4878188;29;20036;-76
2023/04/22 05:37:02;;;;;;;17.08;9.52;;;;;;;7.58;100.00;100611.00;4848419;29;20029;-77
2023/04/22 05:39:28;;;;;;;20.70;11.40;;;;;;;7.68;100.00;100609.72;4896013;29;20108;-77
2023/04/22 05:41:54;;;;;;;16.88;9.57;;;;;;;7.79;100.00;100612.91;4895881;29;20165;-76
2023/04/22 05:44:19;;;;;;;18.23;10.20;;;;;;;7.88;100.00;100607.28;4895956;29;20036;-77
2023/04/22 05:46:45;;;;;;;18.27;11.10;;;;;;;7.98;100.00;100601.69;4895866;29;20115;-76
2023/04/22 05:49:11;;;;;;;23.52;13.52;;;;;;;8.17;100.00;100612.75;4882197;29;20024;-77
2023/04/22 05:51:36;;;;;;;20.33;12.43;;;;;;;8.27;100.00;100605.31;4861247;29;20033;-76
2023/04/22 05:54:01;;;;;;;23.15;14.85;;;;;;;8.39;100.00;100611.81;4870349;29;20051;-76
2023/04/22 05:56:27;;;;;;;20.70;13.20;;;;;;;8.58;100.00;100617.53;4895484;29;20549;-77
2023/04/22 05:58:52;;;;;;;22.52;14.18;;;;;;;8.75;100.00;100602.94;4894234;29;20088;-77
2023/04/22 06:01:17;;;;;;;24.33;14.25;;;;;;;8.83;100.00;100596.69;4876490;29;20493;-76
2023/04/22 06:03:43;;;;;;;21.92;14.40;;;;;;;8.87;100.00;100595.28;4860746;29;20101;-76
2023/04/22 06:06:08;;;;;;;24.02;16.88;;;;;;;8.99;100.00;100607.88;4877637;29;20039;-76
2023/04/22 06:08:34;;;;;;;24.77;16.48;;;;;;;9.07;100.00;100606.94;4877790;29;20065;-76
2023/04/22 06:10:59;;;;;;;26.77;17.10;;;;;;;9.16;100.00;100602.28;4877539;29;20538;-77
2023/04/22 06:13:25;;;;;;;30.42;17.40;;;;;;;9.16;100.00;100605.75;4877528;29;20037;-76
2023/04/22 06:15:50;;;;;;;36.60;16.05;;;;;;;9.19;100.00;100600.03;4877309;29;20039;-76
2023/04/22 06:18:16;;;;;;;24.38;17.77;;;;;;;9.30;100.00;100604.03;4893987;29;20469;-77
2023/04/22 06:20:41;;;;;;;29.92;17.55;;;;;;;9.40;100.00;100599.16;4866805;29;20068;-76
2023/04/22 06:23:07;;;;;;;36.88;18.27;;;;;;;9.57;100.00;100597.03;4877497;29;20048;-76
2023/04/22 06:25:32;;;;;;;28.58;19.67;;;;;;;9.68;100.00;100602.81;4877370;29;20040;-76
2023/04/22 06:27:58;;;;;;;25.33;17.90;;;;;;;9.81;100.00;100586.91;4877312;29;20056;-77
2023/04/22 06:30:24;;;;;;;46.65;20.13;;;;;;;9.91;100.00;100587.34;4877046;29;20148;-76
2023/04/22 06:32:51;;;;;;;27.05;18.20;;;;;;;10.03;100.00;100590.25;4877094;29;20523;-77
2023/04/22 06:35:16;;;;;;;27.27;17.08;;;;;;;10.19;100.00;100583.75;4877192;29;20028;-76
2023/04/22 06:37:41;;;;;;;26.20;17.90;;;;;;;10.40;100.00;100583.66;4894631;29;20504;-77
2023/04/22 06:40:08;;;;;;;24.52;16.63;;;;;;;10.67;100.00;100578.34;4894673;29;20364;-77
2023/04/22 06:42:33;;;;;;;26.00;16.98;;;;;;;10.90;100.00;100584.13;4894847;29;20084;-76
2023/04/22 06:44:58;;;;;;;24.70;16.33;;;;;;;11.01;100.00;100592.53;4862614;29;20024;-77
2023/04/22 06:47:24;;;;;;;25.67;16.25;;;;;;;11.19;100.00;100598.06;4889767;29;20032;-78
2023/04/22 06:49:49;;;;;;;23.75;16.38;;;;;;;11.32;100.00;100591.88;4875642;29;20077;-77
2023/04/22 06:52:14;;;;;;;27.17;15.95;;;;;;;11.32;100.00;100587.38;4883022;29;20112;-77
2023/04/22 06:54:40;;;;;;;24.58;15.77;;;;;;;11.54;100.00;100584.44;4880171;29;20437;-77
2023/04/22 06:57:06;;;;;;;25.10;14.73;;;;;;;11.53;100.00;100564.94;4880503;29;20039;-77
2023/04/22 06:59:32;;;;;;;26.48;14.07;;;;;;;11.79;100.00;100579.22;4894217;29;20029;-77
2023/04/22 07:01:57;;;;;;;23.95;15.05;;;;;;;11.85;100.00;100579.19;4894680;29;20042;-77
2023/04/22 07:04:22;;;;;;;23.73;14.63;;;;;;;11.81;100.00;100569.94;4894160;29;20058;-74
2023/04/22 07:06:48;;;;;;;26.38;15.52;;;;;;;11.79;100.00;100573.88;4870602;29;20041;-77
2023/04/22 07:09:13;;;;;;;25.48;15.23;;;;;;;11.69;100.00;100573.50;4888526;29;20036;-78
2023/04/22 07:11:39;;;;;;;22.35;14.60;;;;;;;11.68;100.00;100578.00;4884233;29;20040;-78
2023/04/22 07:14:04;;;;;;;20.30;13.45;;;;;;;11.74;100.00;100574.53;4890739;29;20123;-72
2023/04/22 07:16:29;;;;;;;20.70;12.82;;;;;;;11.89;100.00;100582.28;4882035;29;20029;-74
2023/04/22 07:18:55;;;;;;;24.38;13.60;;;;;;;12.07;100.00;100573.56;4878391;29;20046;-75
2023/04/22 07:21:20;;;;;;;22.75;14.20;;;;;;;12.36;100.00;100572.16;4878937;29;20024;-75
2023/04/22 07:23:46;;;;;;;22.58;14.48;;;;;;;12.84;100.00;100565.47;4862116;29;20439;-75
2023/04/22 07:26:11;;;;;;;25.20;14.02;;;;;;;13.45;100.00;100570.06;4869657;29;20032;-74
2023/04/22 07:28:37;;;;;;;23.40;14.27;;;;;;;13.99;100.00;100568.41;4879674;29;20089;-75
2023/04/22 07:31:02;;;;;;;21.35;13.63;;;;;;;14.20;100.00;100567.09;4878837;29;20049;-75
2023/04/22 07:33:27;;;;;;;19.98;11.65;;;;;;;14.05;100.00;100560.50;4862610;29;20041;-75
2023/04/22 07:35:53;;;;;;;19.00;11.70;;;;;;;13.99;100.00;100563.06;4878880;29;20048;-75
2023/04/22 07:38:19;;;;;;;20.98;11.10;;;;;;;14.15;100.00;100566.16;4878698;29;20025;-75
2023/04/22 07:40:44;;;;;;;21.63;12.48;;;;;;;14.77;100.00;100564.00;4879162;29;20031;-74
2023/04/22 07:43:10;;;;;;;19.63;10.90;;;;;;;15.18;96.25;100569.53;4878998;29;20176;-75
2023/04/22 07:45:35;;;;;;;20.45;11.50;;;;;;;15.43;97.09;100563.88;4878340;29;20606;-75
2023/04/22 07:48:01;;;;;;;16.67;10.30;;;;;;;15.46;94.86;100569.63;4878573;29;20068;-80
2023/04/22 07:50:26;;;;;;;21.52;12.35;;;;;;;15.61;95.23;100569.09;4871074;29;20040;-80
2023/04/22 07:52:51;;;;;;;19.92;11.73;;;;;;;15.50;93.13;100564.59;4861724;29;20029;-77
2023/04/22 07:55:17;;;;;;;18.15;11.55;;;;;;;15.50;91.97;100568.09;4879254;29;20108;-77
2023/04/22 07:57:42;;;;;;;18.65;10.27;;;;;;;16.37;90.86;100577.91;4861867;29;20462;-77
2023/04/22 08:00:08;;;;;;;18.60;9.30;;;;;;;17.34;86.08;100575.16;4879201;29;20124;-77
2023/04/22 08:02:34;;;;;;;17.35;9.85;;;;;;;17.90;83.97;100560.53;4862087;29;20100;-77
2023/04/22 08:05:00;;;;;;;16.95;9.73;;;;;;;18.63;78.23;100554.78;4878836;29;20029;-77
2023/04/22 08:07:25;;;;;;;15.50;9.00;;;;;;;18.98;74.30;100540.75;4861345;29;20507;-77
2023/04/22 08:09:51;;;;;;;17.40;8.68;;;;;;;19.12;73.98;100540.28;4879376;29;20123;-77
2023/04/22 08:12:17;;;;;;;15.18;8.82;;;;;;;19.02;72.47;100544.56;4878537;29;20033;-77
2023/04/22 08:14:42;;;;;;;15.73;9.75;;;;;;;19.14;73.40;100538.94;4882841;29;20036;-77
2023/04/22 08:17:07;;;;;;;17.00;9.30;;;;;;;19.40;74.94;100529.09;4878321;29;20028;-76
2023/04/22 08:19:33;;;;;;;16.23;9.00;;;;;;;19.38;68.74;100533.13;4882397;29;20079;-75
2023/04/22 08:21:58;;;;;;;18.27;9.90;;;;;;;19.12;70.10;100521.34;4882714;29;20044;-76
2023/04/22 08:24:24;;;;;;;15.02;8.65;;;;;;;18.82;70.80;100523.59;4882594;29;20039;-76
2023/04/22 08:26:49;;;;;;;15.05;10.05;;;;;;;19.07;73.34;100521.31;4865033;29;20044;-76
2023/04/22 08:29:15;;;;;;;15.00;8.20;;;;;;;19.40;71.75;100531.78;4886792;29;20063;-77
2023/04/22 08:31:40;;;;;;;13.20;7.57;;;;;;;19.86;69.78;100523.09;4882074;29;20099;-77
2023/04/22 08:34:06;;;;;;;17.60;9.13;;;;;;;20.80;68.46;100534.53;4882090;29;20802;-77
2023/04/22 08:36:31;;;;;;;15.20;8.27;;;;;;;21.21;67.00;100524.44;4880778;29;20499;-77
2023/04/22 08:38:57;;;;;;;15.48;7.22;;;;;;;20.56;65.38;100502.59;4885993;29;20124;-77
2023/04/22 08:41:25;;;;;;;12.65;7.05;;;;;;;20.09;66.51;100514.44;4881512;29;20039;-77
2023/04/22 08:43:51;;;;;;;13.23;7.20;;;;;;;19.43;68.09;100511.50;4882119;29;20032;-77
2023/04/22 08:46:20;;;;;;;10.75;6.72;;;;;;;19.10;68.46;100508.13;4872096;29;20041;-77
2023/04/22 08:48:47;;;;;;;10.50;6.38;;;;;;;18.99;72.47;100506.41;4873132;29;20032;-77
2023/04/22 08:51:15;;;;;;;16.27;8.40;;;;;;;18.94;72.66;100506.38;4881359;29;20041;-76
2023/04/22 08:53:42;;;;;;;11.40;6.63;;;;;;;18.83;69.88;100495.50;4881626;29;20120;-77
2023/04/22 08:56:09;;;;;;;11.88;6.40;;;;;;;18.71;72.86;100486.75;4881977;29;20032;-77
2023/04/22 08:58:35;;;;;;;9.93;6.43;;;;;;;18.62;75.48;100483.72;4881127;29;20533;-77
2023/04/22 09:01:02;;;;;;;14.45;6.88;;;;;;;18.30;68.55;100481.03;4881572;29;20084;-77
2023/04/22 09:03:28;;;;;;;10.25;6.82;;;;;;;18.03;70.67;100478.38;4881860;29;20500;-77
2023/04/22 09:05:54;;;;;;;10.75;6.30;;;;;;;17.79;74.38;100458.09;4881012;29;20033;-77
2023/04/22 09:08:20;;;;;;;13.95;8.02;;;;;;;18.01;76.14;100463.50;4881665;29;20076;-77
2023/04/22 09:10:46;;;;;;;13.38;7.35;;;;;;;17.89;76.92;100477.97;4881421;29;20028;-78
2023/04/22 09:13:12;;;;;;;10.00;6.45;;;;;;;17.68;70.90;100474.22;4881509;29;20047;-77
2023/04/22 09:15:38;;;;;;;10.13;6.65;;;;;;;17.60;74.58;100474.63;4881164;29;20073;-77
2023/04/22 09:18:04;;;;;;;9.50;6.22;;;;;;;17.65;72.71;100471.19;4881167;29;20033;-77
2023/04/22 09:20:30;;;;;;;11.88;6.30;;;;;;;17.55;76.41;100468.38;4880902;29;20037;-77
2023/04/22 09:23:00;;;;;;;12.15;6.75;;;;;;;17.53;76.67;100463.25;4881435;29;20428;-77
2023/04/22 09:25:26;;;;;;;13.45;6.53;;;;;;;17.54;75.95;100467.56;4881746;29;20458;-78
2023/04/22 09:27:57;;;;;;;12.80;6.53;;;;;;;17.75;78.83;100474.81;4880813;29;20409;-78
2023/04/22 09:30:38;;;;;;;12.63;7.00;;;;;;;17.98;79.40;100472.91;4880269;29;20056;-78
2023/04/22 09:33:06;;;;;;;10.77;6.70;;;;;;;18.05;78.70;100465.44;4880715;29;20394;-78
2023/04/22 09:35:39;;;;;;;12.32;6.50;;;;;;;18.16;75.12;100455.53;4881360;29;20045;-78
2023/04/22 09:38:07;;;;;;;9.90;6.13;;;;;;;18.22;75.18;100459.91;4857383;29;20041;-77
2023/04/22 09:40:33;;;;;;;12.25;7.05;;;;;;;18.11;76.99;100447.41;4871597;29;20031;-77
2023/04/22 09:43:02;;;;;;;9.90;5.78;;;;;;;18.04;76.68;100452.19;4864479;29;20052;-77
2023/04/22 09:45:38;;;;;;;9.48;5.65;;;;;;;17.96;75.38;100448.06;4879738;29;20024;-77
2023/04/22 09:48:32;;;;;;;9.10;5.78;;;;;;;18.06;77.23;100445.47;4881213;29;20111;-77
2023/04/22 09:50:58;;;;;;;10.13;6.97;;;;;;;18.12;73.12;100449.84;4866068;29;20049;-77
2023/04/22 09:53:23;;;;;;;8.35;6.15;;;;;;;18.18;74.77;100448.81;4880585;29;20119;-78
2023/04/22 09:55:51;;;;;;;9.23;6.25;;;;;;;18.18;70.87;100450.69;4881623;29;20115;-77
2023/04/22 09:58:19;;;;;;;9.45;6.18;;;;;;;18.23;78.02;100458.03;4880456;29;20507;-77
2023/04/22 10:00:50;;;;;;;11.02;5.80;;;;;;;18.26;77.02;100463.72;4880746;29;20044;-78
2023/04/22 10:03:16;;;;;;;10.50;6.20;;;;;;;18.16;73.84;100455.53;4881035;29;20020;-78
2023/04/22 10:05:44;;;;;;;13.10;7.43;;;;;;;18.32;74.01;100459.19;4880775;29;20047;-78
2023/04/22 10:08:11;;;;;;;16.67;7.38;;;;;;;18.26;75.64;100460.19;4879947;29;20029;-77
2023/04/22 10:10:37;;;;;;;12.15;7.03;;;;;;;18.13;74.77;100456.03;4879908;29;20056;-77
2023/04/22 10:13:03;;;;;;;10.05;6.65;;;;;;;18.23;76.22;100458.03;4863580;29;20063;-78
2023/04/22 10:15:37;;;;;;;10.90;7.15;;;;;;;18.34;79.12;100465.97;4880523;29;20096;-78
2023/04/22 10:18:06;;;;;;;13.02;6.68;;;;;;;18.38;78.52;100455.44;4879927;29;20037;-77
2023/04/22 10:20:38;;;;;;;13.13;7.60;;;;;;;18.50;74.20;100457.97;4879442;29;20024;-77
2023/04/22 10:23:04;;;;;;;;;;;;;;;18.80;76.83;100463.59;4880965;29;20032;-78
2023/04/22 10:25:30;;;;;;;12.50;6.68;;;;;;;18.93;74.10;100456.91;4880142;29;20390;-76
2023/04/22 10:28:03;;;;;;;9.18;6.32;;;;;;;18.97;73.19;100465.34;4879823;29;20029;-76
2023/04/22 10:30:31;;;;;;;12.43;6.90;;;;;;;18.97;75.55;100474.25;4879603;29;20044;-76
2023/04/22 10:33:30;;;;;;;11.25;6.28;;;;;;;19.20;75.31;100474.91;4863089;29;20037;-76
2023/04/22 10:36:18;;;;;;;10.95;6.45;;;;;;;19.42;75.72;100480.16;4880103;29;20053;-76
2023/04/22 10:38:49;;;;;;;10.07;5.38;;;;;;;19.61;71.78;100473.16;4879537;29;20040;-76
2023/04/22 10:41:15;;;;;;;9.10;5.80;;;;;;;19.60;70.21;100474.25;4879450;29;20056;-76
2023/04/22 10:43:45;;;;;;;10.18;5.70;;;;;;;19.64;73.01;100469.94;4879532;29;20050;-76
2023/04/22 10:46:29;;;;;;;10.38;5.80;;;;;;;19.75;73.15;100468.09;4878743;29;20108;-74
2023/04/22 10:49:12;;;;;;;10.40;5.65;;;;;;;19.74;73.54;100477.28;4878801;29;20132;-75
2023/04/22 10:51:44;;;;;;;9.75;5.95;;;;;;;19.95;72.66;100463.81;4879253;29;20123;-75
2023/04/22 10:54:27;;;;;;;8.10;5.53;;;;;;;20.04;70.96;100463.03;4880512;29;20036;-76
2023/04/22 10:57:07;;;;;;;11.00;7.03;;;;;;;19.91;73.42;100460.81;4879031;29;20056;-75
2023/04/22 10:59:54;;;;;;;8.85;5.95;;;;;;;19.80;72.99;100448.34;4878650;29;20483;-75
2023/04/22 11:02:21;;;;;;;9.63;5.72;;;;;;;19.72;70.37;100440.75;4878740;29;20127;-76
2023/04/22 11:04:47;;;;;;;11.55;5.88;;;;;;;19.58;69.12;100446.66;4879651;29;20103;-76
2023/04/22 11:07:25;;;;;;;12.55;5.97;;;;;;;19.54;70.35;100452.84;4878972;29;20028;-77
2023/04/22 11:09:57;;;;;;;9.43;5.10;;;;;;;19.37;72.67;100462.00;4879023;29;20017;-76
2023/04/22 11:12:34;;;;;;;11.10;6.15;;;;;;;19.19;73.54;100459.75;4880026;29;20036;-79